Time;durP1;ratioP1;P1;durP2;ratioP2;P2;SDS_P1;SDS_P2;PMS_P1;PMS_P2;Temp;Humidity;BMP_temperature;BMP_pressure;BME280_temperature;BME280_humidity;BME280_pressure;Samples;Min_cycle;Max_cycle;Signal;HPM_P1;HPM_P2
2022/09/11 00:01:44;;;;;;;7.28;6.53;;;14.60;99.90;;;-141.84;89.23;19114.78;5094336;28;20246;-63
2022/09/11 00:04:12;;;;;;;6.72;6.03;;;14.60;99.90;;;-141.84;89.07;19151.34;5093815;28;20302;-63
2022/09/11 00:06:41;;;;;;;7.07;6.38;;;14.60;99.90;;;-141.84;88.87;19129.00;5093899;28;20234;-62
2022/09/11 00:09:10;;;;;;;8.35;6.40;;;14.70;99.90;;;-141.84;88.65;19141.19;5093941;28;20228;-64
2022/09/11 00:11:42;;;;;;;6.90;6.25;;;14.70;99.90;;;-141.84;88.52;19159.47;5093503;28;20231;-64
2022/09/11 00:14:13;;;;;;;7.20;6.50;;;14.70;99.90;;;-141.84;88.24;19118.84;5093732;28;20196;-63
2022/09/11 00:16:46;;;;;;;8.73;6.88;;;14.70;99.90;;;-141.84;87.98;19131.03;5094151;28;20230;-63
2022/09/11 00:19:17;;;;;;;7.40;6.70;;;14.70;99.90;;;-141.84;87.72;19157.44;5093703;28;20281;-61
2022/09/11 00:21:46;;;;;;;7.47;6.78;;;14.70;99.90;;;-141.84;87.01;19143.22;5093498;28;20238;-64
2022/09/11 00:24:14;;;;;;;7.00;6.30;;;14.70;99.90;;;-141.84;87.00;19143.22;5093274;28;20235;-63
2022/09/11 00:26:42;;;;;;;7.70;6.90;;;14.70;99.90;;;-141.84;87.10;19161.50;5093305;28;20267;-63
2022/09/11 00:29:11;;;;;;;7.65;6.75;;;14.70;99.90;;;-141.84;87.08;19133.06;5093304;28;20262;-65
2022/09/11 00:31:39;;;;;;;7.28;6.57;;;14.70;99.90;;;-141.84;87.25;19135.09;5093933;28;20718;-63
2022/09/11 00:34:09;;;;;;;7.93;7.13;;;14.70;99.90;;;-141.84;87.16;19171.66;5093433;28;20250;-64
2022/09/11 00:36:40;;;;;;;6.90;6.18;;;14.80;99.90;;;-141.84;86.96;19161.50;5093189;28;20228;-63
2022/09/11 00:39:10;;;;;;;7.65;6.85;;;14.80;99.90;;;-141.84;86.55;19133.06;5093667;28;20220;-63
2022/09/11 00:41:41;;;;;;;6.47;5.88;;;14.80;99.90;;;-141.84;86.89;19133.06;5093121;28;20224;-63
2022/09/11 00:45:00;;;;;;;6.20;5.60;;;14.80;99.90;;;-141.84;87.23;19098.50;5093159;28;20665;-63
2022/09/11 00:47:31;;;;;;;6.93;6.22;;;14.80;99.90;;;-141.84;87.65;19151.34;5093326;28;20220;-63
2022/09/11 00:50:11;;;;;;;6.72;5.45;;;14.80;99.90;;;-141.84;87.53;19106.66;5092961;28;20823;-62
2022/09/11 00:52:51;;;;;;;6.57;5.97;;;14.80;99.90;;;-141.84;87.29;19131.03;5093496;28;20227;-62
2022/09/11 00:55:25;;;;;;;6.60;5.97;;;14.80;99.90;;;-141.84;86.74;19120.88;5092645;28;20220;-62
2022/09/11 00:57:59;;;;;;;6.50;5.90;;;14.80;99.90;;;-141.84;86.94;19135.09;5093010;28;20235;-62
2022/09/11 01:00:27;;;;;;;6.03;5.53;;;14.80;99.90;;;-141.84;87.12;19106.66;5093261;28;20219;-62
2022/09/11 01:02:57;;;;;;;6.30;5.70;;;14.80;99.90;;;-141.84;86.98;19151.34;5093021;28;20234;-62
2022/09/11 01:05:33;;;;;;;7.43;5.32;;;14.80;99.90;;;-141.84;86.48;19153.38;5093264;28;20231;-63
2022/09/11 01:08:02;;;;;;;5.82;5.20;;;14.80;99.90;;;-141.84;86.88;19114.78;5093922;28;20180;-63
2022/09/11 01:10:45;;;;;;;5.93;5.35;;;14.70;99.90;;;-141.84;87.30;19110.72;5093291;28;20228;-63
2022/09/11 01:13:28;;;;;;;5.97;5.40;;;14.70;99.90;;;-141.84;87.92;19122.91;5092910;28;20232;-62
2022/09/11 01:16:09;;;;;;;5.63;5.13;;;14.70;99.90;;;-141.84;88.17;19137.13;5092648;28;20579;-62
2022/09/11 01:18:48;;;;;;;5.50;5.05;;;14.70;99.90;;;-141.84;88.28;19104.59;5092421;28;20234;-62
2022/09/11 01:21:51;;;;;;;5.68;5.18;;;14.60;99.90;;;-141.84;88.22;19129.00;5092212;28;20227;-62
2022/09/11 01:24:55;;;;;;;5.50;4.90;;;14.60;99.90;;;-141.84;88.25;19106.66;5091933;28;20230;-63
2022/09/11 01:27:50;;;;;;;5.13;4.63;;;14.60;99.90;;;-141.84;88.17;19053.81;5091863;28;20223;-62
2022/09/11 01:30:21;;;;;;;5.55;5.05;;;14.50;99.90;;;-141.84;89.04;19094.44;5090424;28;20219;-62
2022/09/11 01:33:16;;;;;;;4.90;4.40;;;14.50;99.90;;;-141.84;88.77;19072.09;5092510;28;20224;-63
2022/09/11 01:35:56;;;;;;;4.70;4.30;;;14.50;99.90;;;-141.84;88.93;19082.25;5092598;28;20232;-63
2022/09/11 01:38:34;;;;;;;4.90;4.50;;;14.40;99.90;;;-141.84;89.40;19074.13;5092445;28;25156;-64
2022/09/11 01:41:10;;;;;;;4.70;4.30;;;14.40;99.90;;;-141.84;89.64;19076.16;5092641;28;20573;-63
2022/09/11 01:43:50;;;;;;;5.75;5.00;;;14.40;99.90;;;-141.84;89.62;19041.63;5092462;28;20219;-63
2022/09/11 01:46:22;;;;;;;5.25;4.85;;;14.40;99.90;;;-141.84;89.41;19063.97;5092108;28;20227;-63
2022/09/11 01:49:00;;;;;;;5.53;4.60;;;14.30;99.90;;;-141.84;89.77;19078.19;5092383;28;20239;-62
2022/09/11 01:51:34;;;;;;;5.30;4.45;;;14.30;99.90;;;-141.84;90.17;19035.53;5092173;28;20726;-63
2022/09/11 01:54:07;;;;;;;5.50;5.00;;;14.30;99.90;;;-141.84;90.46;19063.97;5092399;28;20223;-63
2022/09/11 01:56:41;;;;;;;6.57;5.70;;;14.20;99.90;;;-141.84;90.67;19059.91;5091756;28;20702;-62
2022/09/11 01:59:16;;;;;;;7.13;5.35;;;14.20;99.90;;;-141.84;90.38;19013.16;5092005;28;20531;-63
2022/09/11 02:01:53;;;;;;;5.53;5.03;;;14.20;99.90;;;-141.84;90.60;19031.47;5092653;28;20194;-62
2022/09/11 02:04:30;;;;;;;5.25;4.82;;;14.10;99.90;;;-141.84;91.01;19037.56;5091901;28;20223;-62
2022/09/11 02:07:06;;;;;;;5.72;5.10;;;14.10;99.90;;;-141.84;91.26;18996.91;5091689;28;20292;-63
2022/09/11 02:09:41;;;;;;;7.13;5.00;;;14.10;99.90;;;-141.84;91.28;19009.09;5091983;28;20223;-63
2022/09/11 02:12:15;;;;;;;6.85;5.63;;;14.00;99.90;;;-141.84;91.58;19011.13;5091617;28;20231;-63
2022/09/11 02:14:49;;;;;;;6.63;5.72;;;14.00;99.90;;;-141.84;91.87;19003.00;5091991;28;20273;-62
2022/09/11 02:17:35;;;;;;;8.15;5.40;;;13.90;99.90;;;-141.84;92.23;19000.97;5091639;28;20190;-62
2022/09/11 02:20:05;;;;;;;6.30;5.60;;;13.90;99.90;;;-141.84;92.18;18984.72;5092238;28;20188;-65
2022/09/11 02:22:33;;;;;;;6.03;5.43;;;13.90;99.90;;;-141.84;92.28;18994.88;5091877;28;20231;-62
2022/09/11 02:25:02;;;;;;;6.72;6.00;;;13.90;99.90;;;-141.84;92.49;18998.94;5091587;28;20223;-63
2022/09/11 02:27:31;;;;;;;6.03;5.53;;;13.90;99.90;;;-141.84;92.71;19000.97;5091231;28;20232;-61
2022/09/11 02:30:01;;;;;;;7.43;6.43;;;13.90;99.90;;;-141.84;92.92;19023.34;5091694;28;20226;-63
2022/09/11 02:32:31;;;;;;;6.27;5.63;;;13.90;99.90;;;-141.84;92.92;18990.81;5091802;28;20235;-63
2022/09/11 02:35:00;;;;;;;6.97;6.05;;;13.80;99.90;;;-141.84;92.88;18974.56;5092291;28;20193;-62
2022/09/11 02:37:49;;;;;;;6.63;5.93;;;13.90;99.90;;;-141.84;92.96;18966.44;5091588;28;20726;-63
2022/09/11 02:40:43;;;;;;;5.78;5.28;;;13.80;99.90;;;-141.84;93.19;18990.81;5091905;28;20719;-64
2022/09/11 02:43:42;;;;;;;6.75;6.05;;;13.80;99.90;;;-141.84;93.28;18948.16;5091729;28;20220;-63
2022/09/11 02:46:50;;;;;;;6.55;5.45;;;13.80;99.90;;;-141.84;93.33;18933.94;5091765;28;20327;-63
2022/09/11 02:49:33;;;;;;;7.75;6.43;;;13.80;99.90;;;-141.84;93.43;18950.19;5091373;28;20224;-63
2022/09/11 02:52:12;;;;;;;6.05;5.45;;;13.80;99.90;;;-141.84;93.36;18962.38;5091604;28;20224;-62
2022/09/11 02:54:53;;;;;;;7.35;6.43;;;13.80;99.90;;;-141.84;93.25;18952.22;5091617;28;20230;-62
2022/09/11 02:57:30;;;;;;;8.52;6.18;;;13.80;99.90;;;-141.84;93.29;18968.47;5091275;28;20909;-63
2022/09/11 03:00:02;;;;;;;7.18;6.47;;;13.80;99.90;;;-141.84;93.08;18919.69;5091532;28;20235;-62
2022/09/11 03:02:36;;;;;;;6.43;5.80;;;13.70;99.90;;;-141.84;93.00;18925.81;5091680;28;20227;-64
2022/09/11 03:05:05;;;;;;;6.30;5.70;;;13.70;99.90;;;-141.84;93.08;18956.28;5091876;28;20184;-67
2022/09/11 03:07:34;;;;;;;6.72;6.00;;;13.70;99.90;;;-141.84;93.28;18938.00;5091910;28;20220;-63
2022/09/11 03:10:02;;;;;;;7.93;6.22;;;13.70;99.90;;;-141.84;93.24;18944.09;5091350;28;20216;-63
2022/09/11 03:12:30;;;;;;;10.15;9.15;;;13.70;99.90;;;-141.84;92.93;18911.56;5093225;28;20224;-62
2022/09/11 03:14:58;;;;;;;9.60;7.30;;;13.70;99.90;;;-141.84;92.76;18909.53;5094929;28;20277;-62
2022/09/11 03:17:26;;;;;;;8.05;6.45;;;13.60;99.90;;;-141.84;92.37;18905.47;5095230;28;20223;-63
2022/09/11 03:19:56;;;;;;;7.03;6.30;;;13.70;99.90;;;-141.84;92.37;18891.25;5095157;28;20569;-63
2022/09/11 03:22:24;;;;;;;7.85;7.05;;;13.70;99.90;;;-141.84;92.74;18903.44;5094712;28;20223;-62
2022/09/11 03:24:52;;;;;;;7.63;6.90;;;13.60;99.90;;;-141.84;92.87;18907.50;5094945;28;20223;-63
2022/09/11 03:27:20;;;;;;;7.50;6.80;;;13.70;99.90;;;-141.84;92.72;18923.78;5094533;28;20231;-62
2022/09/11 03:29:48;;;;;;;7.90;7.10;;;13.60;99.90;;;-141.84;92.99;18909.53;5094664;28;20227;-62
2022/09/11 03:32:17;;;;;;;7.17;6.47;;;13.60;99.90;;;-141.84;93.14;18915.63;5094879;28;20200;-63
2022/09/11 03:34:46;;;;;;;8.05;7.25;;;13.60;99.90;;;-141.84;93.27;18919.69;5094851;28;20628;-62
2022/09/11 03:37:17;;;;;;;8.05;6.72;;;13.50;99.90;;;-141.84;93.19;18901.41;5094472;28;20226;-62
2022/09/11 03:39:44;;;;;;;7.43;6.72;;;13.50;99.90;;;-141.84;93.14;18897.34;5094445;28;20224;-63
2022/09/11 03:42:13;;;;;;;7.65;6.88;;;13.50;99.90;;;-141.84;93.04;18887.19;5094202;28;20591;-62
2022/09/11 03:44:41;;;;;;;8.10;7.27;;;13.50;99.90;;;-141.84;92.85;18879.06;5094573;28;20232;-63
2022/09/11 03:47:10;;;;;;;7.88;6.80;;;13.50;99.90;;;-141.84;92.55;18870.94;5094548;28;20223;-65
2022/09/11 03:49:38;;;;;;;8.82;7.93;;;13.50;99.90;;;-141.84;92.63;18901.41;5094807;28;20211;-63
2022/09/11 03:52:06;;;;;;;8.57;7.68;;;13.50;99.90;;;-141.84;92.33;18870.94;5094410;28;20228;-63
2022/09/11 03:54:36;;;;;;;8.45;7.50;;;13.40;99.90;;;-141.84;92.63;18891.25;5094284;28;20227;-64
2022/09/11 03:57:04;;;;;;;8.35;7.43;;;13.40;99.90;;;-141.84;92.83;18870.94;5094237;28;20273;-62
2022/09/11 03:59:33;;;;;;;9.88;7.93;;;13.40;99.90;;;-141.84;93.14;18889.22;5094532;28;20277;-63
2022/09/11 04:02:00;;;;;;;9.25;8.20;;;13.40;99.90;;;-141.84;93.33;18879.06;5094653;28;20203;-63
2022/09/11 04:04:29;;;;;;;12.30;8.65;;;13.40;99.90;;;-141.84;93.33;18870.94;5094136;28;20228;-64
2022/09/11 04:06:57;;;;;;;11.85;9.50;;;13.50;99.90;;;-141.84;93.10;18858.75;5093801;28;20277;-63
2022/09/11 04:09:25;;;;;;;9.23;7.93;;;13.50;99.90;;;-141.84;92.99;18858.75;5094089;28;20273;-63
2022/09/11 04:11:54;;;;;;;9.63;8.63;;;13.60;99.90;;;-141.84;93.16;18864.84;5093830;28;20292;-64
2022/09/11 04:14:23;;;;;;;9.40;8.13;;;13.60;99.90;;;-141.84;92.62;18879.06;5093911;28;20253;-63
2022/09/11 04:16:51;;;;;;;10.10;8.02;;;13.70;99.90;;;-141.84;91.89;18899.38;5094566;28;20250;-64
2022/09/11 04:19:20;;;;;;;9.07;8.18;;;13.70;99.90;;;-141.84;91.19;18907.50;5093348;28;20233;-63
2022/09/11 04:21:48;;;;;;;10.18;8.13;;;13.80;99.90;;;-141.84;90.09;18950.19;5093760;28;20227;-63
2022/09/11 04:24:16;;;;;;;8.55;7.60;;;13.80;99.90;;;-141.84;87.82;18927.84;5092486;28;20277;-63
2022/09/11 04:26:45;;;;;;;9.88;8.55;;;13.90;99.90;;;-141.84;86.75;18927.84;5093493;28;20660;-63
2022/09/11 04:29:16;;;;;;;8.52;7.63;;;13.90;99.90;;;-141.84;86.83;18946.13;5093660;28;20203;-63
2022/09/11 04:31:45;;;;;;;8.55;7.57;;;14.00;99.90;;;-141.84;87.10;18927.84;5094456;28;20188;-63
2022/09/11 04:34:13;;;;;;;9.48;7.90;;;14.00;99.90;;;-141.84;87.20;18923.78;5093566;28;20234;-63
2022/09/11 04:36:41;;;;;;;8.38;7.50;;;14.00;99.90;;;-141.84;87.55;18895.31;5093589;28;20227;-64
2022/09/11 04:39:09;;;;;;;8.95;8.15;;;14.00;99.90;;;-141.84;87.76;18895.31;5093352;28;20703;-62
2022/09/11 04:41:38;;;;;;;9.50;8.05;;;14.10;99.90;;;-141.84;87.99;18919.69;5093448;28;20231;-62
2022/09/11 04:44:06;;;;;;;10.75;8.50;;;14.00;99.90;;;-141.84;87.80;18905.47;5093601;28;20200;-64
2022/09/11 04:46:35;;;;;;;9.00;8.02;;;14.00;99.90;;;-141.84;87.92;18921.75;5093872;28;20204;-62
2022/09/11 04:49:03;;;;;;;9.95;8.95;;;14.00;99.90;;;-141.84;87.87;18927.84;5093173;28;20227;-63
2022/09/11 04:51:35;;;;;;;9.80;8.80;;;14.10;99.90;;;-141.84;87.99;18925.81;5093368;28;20257;-64
2022/09/11 04:54:04;;;;;;;9.73;8.25;;;14.00;99.90;;;-141.84;88.21;18923.78;5093175;28;20228;-63
2022/09/11 04:56:36;;;;;;;8.98;8.02;;;14.00;99.90;;;-141.84;87.88;18850.63;5092609;28;20715;-63
2022/09/11 04:59:08;;;;;;;8.70;7.80;;;14.00;99.90;;;-141.84;87.95;18899.38;5093233;28;20189;-63
2022/09/11 05:01:38;;;;;;;9.38;8.40;;;14.00;99.90;;;-141.84;88.35;18897.34;5093621;28;20279;-63
2022/09/11 05:04:07;;;;;;;9.43;8.43;;;14.00;99.90;;;-141.84;88.68;18879.06;5092898;28;20587;-64
2022/09/11 05:06:37;;;;;;;10.30;9.18;;;14.00;99.90;;;-141.84;89.02;18919.69;5092620;28;20228;-63
2022/09/11 05:09:08;;;;;;;10.18;8.35;;;14.00;99.90;;;-141.84;88.83;18893.28;5092643;28;20238;-64
2022/09/11 05:11:38;;;;;;;10.40;9.40;;;14.10;99.90;;;-141.84;88.83;18919.69;5092614;28;20230;-62
2022/09/11 05:14:07;;;;;;;9.82;8.82;;;14.00;99.90;;;-141.84;88.31;18938.00;5092606;28;20612;-62
2022/09/11 05:16:37;;;;;;;9.85;8.85;;;14.00;99.90;;;-141.84;88.63;18895.31;5093144;28;20200;-61
2022/09/11 05:19:06;;;;;;;10.25;9.13;;;14.00;99.90;;;-141.84;88.84;18909.53;5092797;28;20219;-63
2022/09/11 05:21:35;;;;;;;11.70;10.35;;;14.10;99.90;;;-141.84;89.09;18915.63;5092349;28;20231;-63
2022/09/11 05:24:04;;;;;;;11.43;10.23;;;14.10;99.90;;;-141.84;88.95;18905.47;5092466;28;20235;-63
2022/09/11 05:26:37;;;;;;;12.07;9.82;;;14.10;99.90;;;-141.84;88.87;18907.50;5092261;28;20231;-62
2022/09/11 05:29:08;;;;;;;12.68;11.27;;;14.20;99.90;;;-141.84;88.30;18929.88;5092451;28;20555;-64
2022/09/11 05:31:38;;;;;;;12.48;11.18;;;14.30;99.90;;;-141.84;86.87;18968.47;5092673;28;20188;-63
2022/09/11 05:34:07;;;;;;;11.93;10.73;;;14.40;99.90;;;-141.84;85.50;18988.78;5092187;28;20769;-62
2022/09/11 05:36:35;;;;;;;11.90;10.70;;;14.60;99.90;;;-141.84;84.61;19013.16;5092211;28;20224;-62
2022/09/11 05:39:04;;;;;;;12.32;11.02;;;14.70;99.90;;;-141.84;83.46;19003.00;5092351;28;20778;-63
2022/09/11 05:41:32;;;;;;;12.27;11.07;;;14.80;99.90;;;-141.84;82.67;19076.16;5092043;28;20285;-63
2022/09/11 05:44:01;;;;;;;11.98;10.88;;;15.00;99.90;;;-141.84;82.69;19104.59;5092823;28;20204;-62
2022/09/11 05:46:29;;;;;;;11.57;10.52;;;15.10;99.90;;;-141.84;82.30;19080.22;5092059;28;20224;-63
2022/09/11 05:48:58;;;;;;;11.55;10.32;;;15.20;99.90;;;-141.84;80.22;19108.69;5092056;28;20232;-63
2022/09/11 05:51:26;;;;;;;11.48;10.38;;;15.30;99.90;;;-141.84;80.28;19137.13;5092070;28;20219;-64
2022/09/11 05:53:55;;;;;;;12.23;11.05;;;15.40;99.90;;;-141.84;79.64;19147.28;5092015;28;20228;-64
2022/09/11 05:56:25;;;;;;;11.75;10.63;;;15.50;99.90;;;-141.84;79.42;19151.34;5092058;28;20204;-64
2022/09/11 05:58:53;;;;;;;10.68;9.65;;;15.50;99.90;;;-141.84;78.85;19159.47;5092404;28;20647;-63
2022/09/11 06:01:24;;;;;;;10.73;9.70;;;15.50;99.90;;;-141.84;78.99;19177.75;5091826;28;20231;-62
2022/09/11 06:03:53;;;;;;;11.50;10.30;;;15.60;99.90;;;-141.84;77.23;19228.56;5092002;28;20760;-63
2022/09/11 06:06:23;;;;;;;11.32;10.05;;;15.70;99.90;;;-141.84;77.23;19263.09;5091862;28;20228;-62
2022/09/11 06:08:52;;;;;;;11.48;10.27;;;15.80;99.90;;;-141.84;76.80;19250.91;5091973;28;20232;-63
2022/09/11 06:11:22;;;;;;;12.27;11.07;;;15.90;99.90;;;-141.84;75.08;19320.00;5091502;28;20617;-62
2022/09/11 06:13:50;;;;;;;14.07;12.52;;;15.90;99.90;;;-141.84;75.40;19299.69;5091515;28;20676;-62
2022/09/11 06:16:20;;;;;;;15.73;13.13;;;15.90;99.90;;;-141.84;75.92;19330.16;5091123;28;20230;-63
2022/09/11 06:18:51;;;;;;;16.17;14.52;;;15.80;99.90;;;-141.84;76.14;19340.31;5091192;28;20220;-62
2022/09/11 06:21:22;;;;;;;15.70;14.23;;;15.80;99.90;;;-141.84;76.89;19269.22;5091455;28;20231;-63
2022/09/11 06:23:53;;;;;;;16.13;14.48;;;15.60;99.90;;;-141.84;77.69;19236.69;5091479;28;20645;-62
2022/09/11 06:26:24;;;;;;;15.95;14.45;;;15.60;99.90;;;-141.84;77.57;19305.78;5091439;28;20184;-63
2022/09/11 06:28:54;;;;;;;16.88;15.07;;;15.60;99.90;;;-141.84;76.52;19305.78;5092331;28;20215;-63
2022/09/11 06:31:25;;;;;;;17.33;15.55;;;15.70;99.90;;;-141.84;76.40;19326.09;5091488;28;20641;-63
2022/09/11 06:33:54;;;;;;;17.08;15.35;;;15.70;99.90;;;-141.84;76.12;19311.88;5091625;28;20223;-63
2022/09/11 06:36:26;;;;;;;17.98;15.20;;;15.70;99.90;;;-141.84;75.94;19291.56;5091615;28;20231;-64
2022/09/11 06:38:56;;;;;;;17.50;15.23;;;15.60;99.90;;;-141.84;77.26;19257.00;5091447;28;20232;-62
2022/09/11 06:41:27;;;;;;;15.85;13.75;;;15.50;99.90;;;-141.84;77.97;19220.44;5091208;28;20938;-63
2022/09/11 06:43:55;;;;;;;15.52;13.93;;;15.50;99.90;;;-141.84;77.99;19230.59;5092206;28;20195;-62
2022/09/11 06:46:25;;;;;;;14.88;12.90;;;15.50;99.90;;;-141.84;77.42;19244.81;5091805;28;20228;-64
2022/09/11 06:48:54;;;;;;;13.95;12.50;;;15.50;99.90;;;-141.84;76.97;19277.34;5095324;28;20227;-63
2022/09/11 06:51:24;;;;;;;13.98;12.50;;;15.50;99.90;;;-141.84;77.01;19279.38;5095248;28;20745;-62
2022/09/11 06:53:56;;;;;;;14.82;12.10;;;15.50;99.90;;;-141.84;78.55;19216.38;5095570;28;20223;-63
2022/09/11 06:56:25;;;;;;;14.55;13.02;;;15.40;99.90;;;-141.84;78.38;19232.63;5094565;28;20276;-62
2022/09/11 06:58:53;;;;;;;16.02;14.10;;;15.40;99.90;;;-141.84;78.41;19212.31;5095302;28;20192;-63
2022/09/11 07:01:23;;;;;;;19.10;14.98;;;15.50;99.90;;;-141.84;78.00;19228.56;5094364;28;20232;-63
2022/09/11 07:03:53;;;;;;;20.67;15.73;;;15.40;99.90;;;-141.84;78.59;19224.50;5094527;28;20231;-63
2022/09/11 07:06:25;;;;;;;17.75;15.15;;;15.30;99.90;;;-141.84;77.94;19232.63;5095100;28;20597;-62
2022/09/11 07:09:01;;;;;;;18.05;14.73;;;15.30;99.90;;;-141.84;78.34;19257.00;5094852;28;20228;-62
2022/09/11 07:11:32;;;;;;;17.25;14.38;;;15.30;99.90;;;-141.84;77.68;19238.72;5095134;28;20226;-62
2022/09/11 07:14:04;;;;;;;17.95;13.88;;;15.40;99.90;;;-141.84;76.63;19230.59;5095470;28;20551;-62
2022/09/11 07:16:32;;;;;;;16.02;13.90;;;15.40;99.90;;;-141.84;75.83;19301.72;5095281;28;20212;-64
2022/09/11 07:19:02;;;;;;;14.85;13.25;;;15.60;99.90;;;-141.84;76.18;19309.84;5094867;28;20272;-63
2022/09/11 07:21:33;;;;;;;15.98;13.65;;;15.50;99.90;;;-141.84;76.61;19232.63;5094733;28;20734;-63
2022/09/11 07:24:02;;;;;;;20.63;13.95;;;15.50;99.90;;;-141.84;76.23;19252.94;5094753;28;20226;-63
2022/09/11 07:26:31;;;;;;;17.08;13.70;;;15.50;99.90;;;-141.84;75.63;19299.69;5094644;28;20224;-63
2022/09/11 07:28:59;;;;;;;14.05;12.55;;;15.60;99.90;;;-141.84;75.05;19305.78;5094967;28;20270;-64
2022/09/11 07:31:31;;;;;;;13.90;11.27;;;15.70;99.90;;;-141.84;75.20;19326.09;5094581;28;20235;-63
2022/09/11 07:34:01;;;;;;;15.60;11.70;;;15.60;99.90;;;-141.84;75.58;19346.44;5094336;28;20239;-63
2022/09/11 07:36:34;;;;;;;15.23;11.85;;;15.70;99.90;;;-141.84;75.40;19334.22;5094257;28;20281;-64
2022/09/11 07:39:03;;;;;;;11.10;9.95;;;15.80;99.90;;;-141.84;75.44;19366.75;5094321;28;20642;-62
2022/09/11 07:41:31;;;;;;;13.77;11.80;;;15.80;99.90;;;-141.84;74.27;19395.19;5094076;28;20239;-65
2022/09/11 07:44:00;;;;;;;14.65;11.75;;;16.00;99.90;;;-141.84;73.97;19399.25;5094745;28;20208;-63
2022/09/11 07:46:30;;;;;;;16.05;12.07;;;16.10;99.90;;;-141.84;74.56;19391.13;5094461;28;20224;-62
2022/09/11 07:48:58;;;;;;;17.30;12.77;;;16.10;99.90;;;-141.84;74.40;19403.31;5093962;28;20680;-62
2022/09/11 07:51:26;;;;;;;14.27;12.50;;;16.20;99.90;;;-141.84;73.74;19482.56;5094411;28;20224;-62
2022/09/11 07:53:58;;;;;;;16.48;12.80;;;16.30;99.90;;;-141.84;71.67;19539.47;5093988;28;20253;-63
2022/09/11 07:56:27;;;;;;;20.52;12.80;;;16.60;99.90;;;-141.84;71.17;19574.03;5093984;28;20714;-63
2022/09/11 07:58:57;;;;;;;14.65;12.15;;;16.60;99.90;;;-141.84;70.60;19604.50;5094376;28;20204;-63
2022/09/11 08:01:28;;;;;;;16.30;13.00;;;16.70;99.90;;;-141.84;70.25;19630.94;5094069;28;20281;-63
2022/09/11 08:03:59;;;;;;;16.20;12.35;;;16.80;99.90;;;-141.84;70.78;19622.81;5093810;28;20277;-62
2022/09/11 08:06:30;;;;;;;13.68;11.73;;;16.70;99.90;;;-141.84;70.88;19643.13;5093867;28;20224;-63
2022/09/11 08:09:04;;;;;;;13.82;11.48;;;16.70;99.90;;;-141.84;70.65;19659.38;5093469;28;20226;-63
2022/09/11 08:11:36;;;;;;;15.02;11.30;;;16.70;99.90;;;-141.84;70.93;19614.66;5093873;28;20231;-62
2022/09/11 08:14:06;;;;;;;15.43;12.05;;;16.70;99.90;;;-141.84;71.38;19578.09;5093984;28;20581;-62
2022/09/11 08:16:35;;;;;;;14.77;11.48;;;16.70;99.90;;;-141.84;72.20;19537.44;5094176;28;20211;-63
2022/09/11 08:19:04;;;;;;;14.95;11.57;;;16.60;99.90;;;-141.84;71.27;19592.31;5093698;28;20235;-64
2022/09/11 08:21:32;;;;;;;14.18;10.73;;;16.70;99.90;;;-141.84;70.77;19635.00;5093814;28;20565;-62
2022/09/11 08:24:03;;;;;;;12.25;10.15;;;16.70;99.90;;;-141.84;69.96;19659.38;5093446;28;20227;-62
2022/09/11 08:26:31;;;;;;;11.68;10.02;;;16.70;99.90;;;-141.84;69.65;19655.31;5093751;28;20602;-63
2022/09/11 08:29:00;;;;;;;12.65;10.07;;;16.80;99.90;;;-141.84;69.61;19669.53;5093875;28;20231;-64
2022/09/11 08:31:29;;;;;;;12.80;9.82;;;16.80;99.90;;;-141.84;69.59;19708.16;5093806;28;20611;-62
2022/09/11 08:33:57;;;;;;;12.15;9.52;;;16.80;99.90;;;-141.84;69.02;19716.28;5093320;28;20297;-62
2022/09/11 08:36:26;;;;;;;12.75;9.80;;;16.90;99.90;;;-141.84;69.16;19734.56;5093252;28;20232;-63
2022/09/11 08:38:55;;;;;;;11.90;9.93;;;16.90;99.90;;;-141.84;68.96;19736.59;5093121;28;20227;-65
2022/09/11 08:41:36;;;;;;;10.85;9.40;;;16.90;99.90;;;-141.84;69.06;19754.91;5092587;28;20200;-65
2022/09/11 08:44:19;;;;;;;13.15;9.40;;;17.00;99.90;;;-141.84;68.91;19738.66;5092727;28;20180;-63
2022/09/11 08:46:54;;;;;;;11.68;9.13;;;17.00;99.90;;;-141.84;69.62;19746.78;5092940;28;20204;-64
2022/09/11 08:49:27;;;;;;;9.38;8.20;;;17.00;99.90;;;-141.84;68.08;19769.13;5092114;28;20250;-64
2022/09/11 08:52:01;;;;;;;10.93;8.98;;;17.10;99.90;;;-141.84;69.10;19720.34;5092144;28;20224;-66
2022/09/11 08:54:33;;;;;;;10.45;8.15;;;17.00;99.90;;;-141.84;69.79;19712.22;5092310;28;20227;-65
2022/09/11 08:57:32;;;;;;;8.43;7.13;;;17.00;99.90;;;-141.84;70.13;19663.44;5092092;28;20250;-67
2022/09/11 09:00:09;;;;;;;8.27;7.47;;;16.80;99.90;;;-141.84;70.23;19665.47;5092928;28;20352;-68
2022/09/11 09:03:02;;;;;;;8.88;8.02;;;16.70;99.90;;;-141.84;71.01;19622.81;5093090;28;20237;-66
2022/09/11 09:05:41;;;;;;;8.43;7.47;;;16.70;99.90;;;-141.84;71.29;19614.66;5092563;28;20221;-67
2022/09/11 09:08:39;;;;;;;8.23;7.40;;;16.60;99.90;;;-141.84;72.25;19569.97;5091544;28;20187;-66
2022/09/11 09:11:24;;;;;;;9.35;8.35;;;16.50;99.90;;;-141.84;72.50;19598.41;5089555;28;20538;-66
2022/09/11 09:14:19;;;;;;;8.70;7.40;;;16.50;99.90;;;-141.84;72.37;19586.22;5090877;28;20195;-66
2022/09/11 09:16:53;;;;;;;8.15;7.35;;;16.40;99.90;;;-141.84;72.57;19576.06;5089939;28;20212;-66
2022/09/11 09:19:29;;;;;;;7.75;6.15;;;16.50;99.90;;;-141.84;73.33;19525.25;5091694;28;20230;-66
2022/09/11 09:22:09;;;;;;;7.88;7.18;;;16.50;99.90;;;-141.84;72.62;19565.91;5091883;28;20223;-68
2022/09/11 09:24:47;;;;;;;8.95;7.40;;;16.50;99.90;;;-141.84;71.69;19610.59;5092032;28;20223;-65
2022/09/11 09:27:21;;;;;;;8.38;7.38;;;16.50;99.90;;;-141.84;72.62;19529.31;5092300;28;20262;-66
2022/09/11 09:29:55;;;;;;;8.60;7.80;;;16.50;99.90;;;-141.84;71.52;19594.34;5092120;28;20230;-65
2022/09/11 09:32:31;;;;;;;7.43;6.72;;;16.60;99.90;;;-141.84;72.18;19557.78;5092698;28;20184;-66
2022/09/11 09:35:07;;;;;;;8.55;7.75;;;16.60;99.90;;;-141.84;72.83;19545.56;5093283;28;20184;-66
2022/09/11 09:37:38;;;;;;;8.40;7.63;;;16.70;99.90;;;-141.84;71.55;19596.38;5092808;28;20216;-65
2022/09/11 09:40:09;;;;;;;7.82;6.60;;;16.70;99.90;;;-141.84;72.34;19574.03;5092244;28;20227;-65
2022/09/11 09:43:20;;;;;;;9.57;8.40;;;16.60;99.90;;;-141.84;72.34;19531.34;5092052;28;20228;-66
2022/09/11 09:46:14;;;;;;;9.75;8.13;;;16.60;99.90;;;-141.84;72.37;19557.78;5043967;28;20809;-67
2022/09/11 09:48:42;;;;;;;9.55;8.55;;;16.60;99.90;;;-141.84;71.96;19580.13;5088078;28;20212;-66
2022/09/11 09:51:13;;;;;;;7.88;7.05;;;16.60;99.90;;;-141.84;72.67;19588.25;5090335;28;20285;-66
2022/09/11 09:53:49;;;;;;;10.30;7.50;;;16.50;99.90;;;-141.84;72.73;19547.59;5092249;28;20231;-66
2022/09/11 09:56:22;;;;;;;8.00;7.20;;;16.50;99.90;;;-141.84;73.26;19517.13;5091785;28;20237;-66
2022/09/11 09:59:01;;;;;;;8.07;7.28;;;16.60;99.90;;;-141.84;73.89;19509.00;5092378;28;20190;-65
2022/09/11 10:01:50;;;;;;;7.25;6.53;;;16.50;99.90;;;-141.84;73.42;19517.13;5091676;28;20250;-67
2022/09/11 10:04:23;;;;;;;6.95;6.25;;;16.50;99.90;;;-141.84;72.38;19545.56;5091420;28;20220;-65
2022/09/11 10:07:04;;;;;;;7.82;7.10;;;16.50;99.90;;;-141.84;72.71;19567.94;5091609;28;20232;-66
2022/09/11 10:09:34;;;;;;;8.18;7.38;;;16.60;99.90;;;-141.84;71.03;19606.53;5091788;28;20286;-66
2022/09/11 10:12:06;;;;;;;8.27;7.10;;;16.50;99.90;;;-141.84;72.56;19606.53;5091306;28;20632;-67
2022/09/11 10:14:44;;;;;;;7.63;6.93;;;16.50;99.90;;;-141.84;72.87;19539.47;5091931;28;20627;-66
2022/09/11 10:17:30;;;;;;;9.18;8.18;;;16.50;99.90;;;-141.84;71.94;19602.47;5091238;28;20188;-65
2022/09/11 10:20:21;;;;;;;9.23;7.70;;;16.60;99.90;;;-141.84;71.77;19596.38;5092248;28;20176;-67
2022/09/11 10:22:51;;;;;;;8.27;7.53;;;16.60;99.90;;;-141.84;70.71;19632.97;5094493;28;20224;-67
2022/09/11 10:25:25;;;;;;;8.32;7.43;;;16.80;99.90;;;-141.84;71.01;19628.91;5094248;28;20228;-67
2022/09/11 10:28:03;;;;;;;8.07;7.20;;;16.80;99.90;;;-141.84;70.63;19669.53;5093721;28;20227;-64